sensor_id;sensor_type;location;lat;lon;timestamp;temperature;humidity
15554;DHT22;7878;44.632;10.942;2022-08-03T00:00:43;29.20;77.60
15554;DHT22;7878;44.632;10.942;2022-08-03T00:03:09;29.10;77.00
15554;DHT22;7878;44.632;10.942;2022-08-03T00:05:35;29.10;77.00
15554;DHT22;7878;44.632;10.942;2022-08-03T00:08:01;29.10;77.10
15554;DHT22;7878;44.632;10.942;2022-08-03T00:10:27;29.10;77.20
15554;DHT22;7878;44.632;10.942;2022-08-03T00:12:54;29.00;77.20
15554;DHT22;7878;44.632;10.942;2022-08-03T00:15:20;29.00;77.30
15554;DHT22;7878;44.632;10.942;2022-08-03T00:17:45;29.00;77.30
15554;DHT22;7878;44.632;10.942;2022-08-03T00:20:11;28.90;77.90
15554;DHT22;7878;44.632;10.942;2022-08-03T00:22:37;28.90;77.80
15554;DHT22;7878;44.632;10.942;2022-08-03T00:25:03;28.90;78.00
15554;DHT22;7878;44.632;10.942;2022-08-03T00:27:29;28.80;78.10
15554;DHT22;7878;44.632;10.942;2022-08-03T00:29:54;28.80;78.80
15554;DHT22;7878;44.632;10.942;2022-08-03T00:32:20;28.70;78.70
15554;DHT22;7878;44.632;10.942;2022-08-03T00:34:46;28.70;79.10
15554;DHT22;7878;44.632;10.942;2022-08-03T00:37:11;28.70;79.00
15554;DHT22;7878;44.632;10.942;2022-08-03T00:39:37;28.70;79.30
15554;DHT22;7878;44.632;10.942;2022-08-03T00:42:03;28.60;78.60
15554;DHT22;7878;44.632;10.942;2022-08-03T00:44:31;28.60;79.00
15554;DHT22;7878;44.632;10.942;2022-08-03T00:46:56;28.60;78.80
15554;DHT22;7878;44.632;10.942;2022-08-03T00:49:22;28.60;78.70
15554;DHT22;7878;44.632;10.942;2022-08-03T00:51:49;28.60;78.40
15554;DHT22;7878;44.632;10.942;2022-08-03T00:54:15;28.70;78.40
15554;DHT22;7878;44.632;10.942;2022-08-03T00:56:41;28.60;78.40
15554;DHT22;7878;44.632;10.942;2022-08-03T00:59:09;28.60;78.40
15554;DHT22;7878;44.632;10.942;2022-08-03T01:01:35;28.50;78.70
15554;DHT22;7878;44.632;10.942;2022-08-03T01:04:00;28.50;79.10
15554;DHT22;7878;44.632;10.942;2022-08-03T01:09:24;28.40;80.80
15554;DHT22;7878;44.632;10.942;2022-08-03T01:12:23;28.40;79.00
15554;DHT22;7878;44.632;10.942;2022-08-03T01:14:59;28.40;80.80
15554;DHT22;7878;44.632;10.942;2022-08-03T01:17:39;28.30;79.20
15554;DHT22;7878;44.632;10.942;2022-08-03T01:20:13;28.30;79.40
15554;DHT22;7878;44.632;10.942;2022-08-03T01:23:14;28.30;79.00
15554;DHT22;7878;44.632;10.942;2022-08-03T01:31:15;28.30;79.60
15554;DHT22;7878;44.632;10.942;2022-08-03T01:33:47;28.30;78.30
15554;DHT22;7878;44.632;10.942;2022-08-03T01:36:18;28.30;79.00
15554;DHT22;7878;44.632;10.942;2022-08-03T01:38:53;28.20;78.90
15554;DHT22;7878;44.632;10.942;2022-08-03T01:41:25;28.20;79.90
15554;DHT22;7878;44.632;10.942;2022-08-03T01:43:55;28.20;78.30
15554;DHT22;7878;44.632;10.942;2022-08-03T01:46:23;28.10;78.40
15554;DHT22;7878;44.632;10.942;2022-08-03T01:48:50;28.10;78.80
15554;DHT22;7878;44.632;10.942;2022-08-03T01:51:18;28.10;77.70
15554;DHT22;7878;44.632;10.942;2022-08-03T01:53:47;28.10;78.10
15554;DHT22;7878;44.632;10.942;2022-08-03T01:56:15;28.10;78.10
15554;DHT22;7878;44.632;10.942;2022-08-03T01:58:43;28.00;78.20
15554;DHT22;7878;44.632;10.942;2022-08-03T02:01:10;28.00;78.00
15554;DHT22;7878;44.632;10.942;2022-08-03T02:03:39;27.90;78.20
15554;DHT22;7878;44.632;10.942;2022-08-03T02:06:09;27.90;78.50
15554;DHT22;7878;44.632;10.942;2022-08-03T02:08:37;27.90;78.60
15554;DHT22;7878;44.632;10.942;2022-08-03T02:11:04;27.90;78.30
15554;DHT22;7878;44.632;10.942;2022-08-03T02:13:33;27.90;78.30
15554;DHT22;7878;44.632;10.942;2022-08-03T02:16:01;27.90;78.70
15554;DHT22;7878;44.632;10.942;2022-08-03T02:18:28;27.80;78.60
15554;DHT22;7878;44.632;10.942;2022-08-03T02:20:55;27.90;78.20
15554;DHT22;7878;44.632;10.942;2022-08-03T02:23:21;27.80;79.00
15554;DHT22;7878;44.632;10.942;2022-08-03T02:25:51;27.80;78.60
15554;DHT22;7878;44.632;10.942;2022-08-03T02:28:24;27.70;79.10
15554;DHT22;7878;44.632;10.942;2022-08-03T02:30:53;27.80;79.40
15554;DHT22;7878;44.632;10.942;2022-08-03T02:33:26;27.70;78.80
15554;DHT22;7878;44.632;10.942;2022-08-03T02:35:53;27.80;79.60
15554;DHT22;7878;44.632;10.942;2022-08-03T02:38:24;27.70;78.50
15554;DHT22;7878;44.632;10.942;2022-08-03T02:40:51;27.70;78.60
15554;DHT22;7878;44.632;10.942;2022-08-03T02:43:20;27.60;79.10
15554;DHT22;7878;44.632;10.942;2022-08-03T02:45:48;27.60;78.50
15554;DHT22;7878;44.632;10.942;2022-08-03T02:48:22;27.60;79.50
15554;DHT22;7878;44.632;10.942;2022-08-03T02:50:52;27.60;79.40
15554;DHT22;7878;44.632;10.942;2022-08-03T02:53:19;27.60;78.50
15554;DHT22;7878;44.632;10.942;2022-08-03T02:55:46;27.60;78.20
15554;DHT22;7878;44.632;10.942;2022-08-03T02:58:13;27.60;77.80
15554;DHT22;7878;44.632;10.942;2022-08-03T03:00:44;27.60;77.70
15554;DHT22;7878;44.632;10.942;2022-08-03T03:03:10;27.60;77.70
15554;DHT22;7878;44.632;10.942;2022-08-03T03:05:37;27.60;77.80
15554;DHT22;7878;44.632;10.942;2022-08-03T03:08:03;27.60;78.10
15554;DHT22;7878;44.632;10.942;2022-08-03T03:10:29;27.60;78.40
15554;DHT22;7878;44.632;10.942;2022-08-03T03:12:56;27.50;78.10
15554;DHT22;7878;44.632;10.942;2022-08-03T03:15:25;27.50;78.40
15554;DHT22;7878;44.632;10.942;2022-08-03T03:17:52;27.50;78.40
15554;DHT22;7878;44.632;10.942;2022-08-03T03:20:18;27.40;77.90
15554;DHT22;7878;44.632;10.942;2022-08-03T03:22:47;27.40;78.30
15554;DHT22;7878;44.632;10.942;2022-08-03T03:25:13;27.40;78.30
15554;DHT22;7878;44.632;10.942;2022-08-03T03:27:39;27.40;78.30
15554;DHT22;7878;44.632;10.942;2022-08-03T03:30:06;27.40;78.00
15554;DHT22;7878;44.632;10.942;2022-08-03T03:32:32;27.40;77.90
15554;DHT22;7878;44.632;10.942;2022-08-03T03:34:58;27.40;77.80
15554;DHT22;7878;44.632;10.942;2022-08-03T03:37:25;27.30;77.70
15554;DHT22;7878;44.632;10.942;2022-08-03T03:39:54;27.30;78.20
15554;DHT22;7878;44.632;10.942;2022-08-03T03:42:20;27.30;77.90
15554;DHT22;7878;44.632;10.942;2022-08-03T03:44:49;27.30;77.60
15554;DHT22;7878;44.632;10.942;2022-08-03T03:47:15;27.30;77.20
15554;DHT22;7878;44.632;10.942;2022-08-03T03:49:40;27.30;77.30
15554;DHT22;7878;44.632;10.942;2022-08-03T03:52:07;27.30;77.60
15554;DHT22;7878;44.632;10.942;2022-08-03T03:54:40;27.20;77.30
15554;DHT22;7878;44.632;10.942;2022-08-03T03:57:06;27.30;78.20
15554;DHT22;7878;44.632;10.942;2022-08-03T03:59:32;27.20;77.10
15554;DHT22;7878;44.632;10.942;2022-08-03T04:02:01;27.20;77.30
15554;DHT22;7878;44.632;10.942;2022-08-03T04:04:27;27.20;77.40
15554;DHT22;7878;44.632;10.942;2022-08-03T04:07:12;27.20;77.20
15554;DHT22;7878;44.632;10.942;2022-08-03T04:09:57;27.10;77.10
15554;DHT22;7878;44.632;10.942;2022-08-03T04:12:43;27.10;77.40
15554;DHT22;7878;44.632;10.942;2022-08-03T04:15:10;27.00;77.60
15554;DHT22;7878;44.632;10.942;2022-08-03T04:17:37;26.80;77.70
15554;DHT22;7878;44.632;10.942;2022-08-03T04:20:04;26.80;77.90
15554;DHT22;7878;44.632;10.942;2022-08-03T04:22:31;26.70;78.00
15554;DHT22;7878;44.632;10.942;2022-08-03T04:25:08;26.70;78.20
15554;DHT22;7878;44.632;10.942;2022-08-03T04:27:37;26.70;79.80
15554;DHT22;7878;44.632;10.942;2022-08-03T04:30:05;26.50;78.90
15554;DHT22;7878;44.632;10.942;2022-08-03T04:32:32;26.50;79.30
15554;DHT22;7878;44.632;10.942;2022-08-03T04:35:00;26.60;79.00
15554;DHT22;7878;44.632;10.942;2022-08-03T04:37:38;26.70;79.00
15554;DHT22;7878;44.632;10.942;2022-08-03T04:40:09;26.80;80.70
15554;DHT22;7878;44.632;10.942;2022-08-03T04:42:36;26.80;79.90
15554;DHT22;7878;44.632;10.942;2022-08-03T04:45:04;26.80;79.80
15554;DHT22;7878;44.632;10.942;2022-08-03T04:47:34;26.80;79.60
15554;DHT22;7878;44.632;10.942;2022-08-03T04:50:02;26.80;80.90
15554;DHT22;7878;44.632;10.942;2022-08-03T04:52:29;26.80;79.60
15554;DHT22;7878;44.632;10.942;2022-08-03T04:54:55;26.80;79.70
15554;DHT22;7878;44.632;10.942;2022-08-03T04:57:21;26.70;79.70
15554;DHT22;7878;44.632;10.942;2022-08-03T04:59:46;26.70;79.70
15554;DHT22;7878;44.632;10.942;2022-08-03T05:02:17;26.70;80.20
15554;DHT22;7878;44.632;10.942;2022-08-03T05:04:42;26.70;79.80
15554;DHT22;7878;44.632;10.942;2022-08-03T05:07:11;26.80;79.80
15554;DHT22;7878;44.632;10.942;2022-08-03T05:09:37;26.80;79.90
15554;DHT22;7878;44.632;10.942;2022-08-03T05:12:04;26.70;79.80
15554;DHT22;7878;44.632;10.942;2022-08-03T05:14:30;26.70;80.00
15554;DHT22;7878;44.632;10.942;2022-08-03T05:16:55;26.70;80.10
15554;DHT22;7878;44.632;10.942;2022-08-03T05:19:21;26.80;80.40
15554;DHT22;7878;44.632;10.942;2022-08-03T05:21:46;26.80;80.10
15554;DHT22;7878;44.632;10.942;2022-08-03T05:24:12;26.80;80.40
15554;DHT22;7878;44.632;10.942;2022-08-03T05:26:38;26.90;80.40
15554;DHT22;7878;44.632;10.942;2022-08-03T05:29:03;26.90;80.10
15554;DHT22;7878;44.632;10.942;2022-08-03T05:31:29;26.90;80.00
15554;DHT22;7878;44.632;10.942;2022-08-03T05:33:56;26.90;80.10
15554;DHT22;7878;44.632;10.942;2022-08-03T05:36:22;27.00;79.90
15554;DHT22;7878;44.632;10.942;2022-08-03T05:38:47;27.00;79.90
15554;DHT22;7878;44.632;10.942;2022-08-03T05:41:13;27.00;79.90
15554;DHT22;7878;44.632;10.942;2022-08-03T05:43:39;26.90;80.60
15554;DHT22;7878;44.632;10.942;2022-08-03T05:46:04;26.90;80.40
15554;DHT22;7878;44.632;10.942;2022-08-03T05:48:30;26.90;80.00
15554;DHT22;7878;44.632;10.942;2022-08-03T05:50:56;26.90;80.10
15554;DHT22;7878;44.632;10.942;2022-08-03T05:53:21;26.90;80.10
15554;DHT22;7878;44.632;10.942;2022-08-03T05:55:47;27.00;80.40
15554;DHT22;7878;44.632;10.942;2022-08-03T05:58:13;27.00;80.00
15554;DHT22;7878;44.632;10.942;2022-08-03T06:00:38;27.10;79.80
15554;DHT22;7878;44.632;10.942;2022-08-03T06:03:04;27.10;80.70
15554;DHT22;7878;44.632;10.942;2022-08-03T06:05:30;27.10;80.00
15554;DHT22;7878;44.632;10.942;2022-08-03T06:07:56;27.20;79.90
15554;DHT22;7878;44.632;10.942;2022-08-03T06:10:22;27.30;79.90
15554;DHT22;7878;44.632;10.942;2022-08-03T06:12:48;27.30;80.40
15554;DHT22;7878;44.632;10.942;2022-08-03T06:15:15;27.30;80.10
15554;DHT22;7878;44.632;10.942;2022-08-03T06:17:48;27.40;80.20
15554;DHT22;7878;44.632;10.942;2022-08-03T06:20:16;27.50;80.90
15554;DHT22;7878;44.632;10.942;2022-08-03T06:22:42;27.70;80.40
15554;DHT22;7878;44.632;10.942;2022-08-03T06:25:09;27.70;80.30
15554;DHT22;7878;44.632;10.942;2022-08-03T06:27:34;27.80;80.00
15554;DHT22;7878;44.632;10.942;2022-08-03T06:30:07;27.90;80.40
15554;DHT22;7878;44.632;10.942;2022-08-03T06:32:35;28.00;80.90
15554;DHT22;7878;44.632;10.942;2022-08-03T06:35:01;28.00;80.80
15554;DHT22;7878;44.632;10.942;2022-08-03T06:37:26;28.00;80.50
15554;DHT22;7878;44.632;10.942;2022-08-03T06:39:53;28.00;81.10
15554;DHT22;7878;44.632;10.942;2022-08-03T06:42:19;28.10;80.50
15554;DHT22;7878;44.632;10.942;2022-08-03T06:44:44;28.10;80.60
15554;DHT22;7878;44.632;10.942;2022-08-03T06:47:10;28.20;80.50
15554;DHT22;7878;44.632;10.942;2022-08-03T06:49:36;28.30;80.50
15554;DHT22;7878;44.632;10.942;2022-08-03T06:52:02;28.30;81.00
15554;DHT22;7878;44.632;10.942;2022-08-03T06:54:29;28.40;80.50
15554;DHT22;7878;44.632;10.942;2022-08-03T06:56:54;28.40;80.70
15554;DHT22;7878;44.632;10.942;2022-08-03T06:59:20;28.40;81.20
15554;DHT22;7878;44.632;10.942;2022-08-03T07:01:46;28.30;81.00
15554;DHT22;7878;44.632;10.942;2022-08-03T07:04:11;28.30;81.10
15554;DHT22;7878;44.632;10.942;2022-08-03T07:06:37;28.30;81.50
15554;DHT22;7878;44.632;10.942;2022-08-03T07:09:04;28.30;81.30
15554;DHT22;7878;44.632;10.942;2022-08-03T07:11:30;28.40;81.50
15554;DHT22;7878;44.632;10.942;2022-08-03T07:13:56;28.50;81.70
15554;DHT22;7878;44.632;10.942;2022-08-03T07:16:22;28.50;82.30
15554;DHT22;7878;44.632;10.942;2022-08-03T07:18:47;28.60;81.90
15554;DHT22;7878;44.632;10.942;2022-08-03T07:21:13;28.70;81.80
15554;DHT22;7878;44.632;10.942;2022-08-03T07:23:41;28.80;82.10
15554;DHT22;7878;44.632;10.942;2022-08-03T07:26:06;28.80;81.60
15554;DHT22;7878;44.632;10.942;2022-08-03T07:28:32;28.90;81.80
15554;DHT22;7878;44.632;10.942;2022-08-03T07:30:58;29.00;82.00
15554;DHT22;7878;44.632;10.942;2022-08-03T07:33:24;29.10;82.60
15554;DHT22;7878;44.632;10.942;2022-08-03T07:35:50;29.20;82.20
15554;DHT22;7878;44.632;10.942;2022-08-03T07:38:15;29.20;82.20
15554;DHT22;7878;44.632;10.942;2022-08-03T07:40:41;29.30;82.10
15554;DHT22;7878;44.632;10.942;2022-08-03T07:43:07;29.50;82.00
15554;DHT22;7878;44.632;10.942;2022-08-03T07:45:33;29.60;82.40
15554;DHT22;7878;44.632;10.942;2022-08-03T07:47:58;29.70;82.50
15554;DHT22;7878;44.632;10.942;2022-08-03T07:50:24;29.70;82.30
15554;DHT22;7878;44.632;10.942;2022-08-03T07:52:50;29.70;82.40
15554;DHT22;7878;44.632;10.942;2022-08-03T07:55:20;29.90;82.10
15554;DHT22;7878;44.632;10.942;2022-08-03T07:57:46;30.00;82.20
15554;DHT22;7878;44.632;10.942;2022-08-03T08:00:16;30.10;81.70
15554;DHT22;7878;44.632;10.942;2022-08-03T08:02:42;30.20;81.50
15554;DHT22;7878;44.632;10.942;2022-08-03T08:05:08;30.20;81.20
15554;DHT22;7878;44.632;10.942;2022-08-03T08:07:37;30.20;81.20
15554;DHT22;7878;44.632;10.942;2022-08-03T08:10:05;30.20;81.20
15554;DHT22;7878;44.632;10.942;2022-08-03T08:12:31;30.20;81.00
15554;DHT22;7878;44.632;10.942;2022-08-03T08:14:59;30.30;81.00
15554;DHT22;7878;44.632;10.942;2022-08-03T08:17:25;30.30;81.40
15554;DHT22;7878;44.632;10.942;2022-08-03T08:19:51;30.40;80.70
15554;DHT22;7878;44.632;10.942;2022-08-03T08:22:17;30.50;80.60
15554;DHT22;7878;44.632;10.942;2022-08-03T08:24:42;30.50;80.30
15554;DHT22;7878;44.632;10.942;2022-08-03T08:27:09;30.70;80.50
15554;DHT22;7878;44.632;10.942;2022-08-03T08:29:37;31.10;80.20
15554;DHT22;7878;44.632;10.942;2022-08-03T08:32:03;31.90;79.50
15554;DHT22;7878;44.632;10.942;2022-08-03T08:34:28;32.50;78.30
15554;DHT22;7878;44.632;10.942;2022-08-03T08:36:54;33.30;77.60
15554;DHT22;7878;44.632;10.942;2022-08-03T08:39:20;33.80;77.90
15554;DHT22;7878;44.632;10.942;2022-08-03T08:41:45;33.70;78.30
15554;DHT22;7878;44.632;10.942;2022-08-03T08:44:14;33.50;79.00
15554;DHT22;7878;44.632;10.942;2022-08-03T08:46:40;33.20;77.60
15554;DHT22;7878;44.632;10.942;2022-08-03T08:49:08;32.90;77.90
15554;DHT22;7878;44.632;10.942;2022-08-03T08:51:34;32.70;77.10
15554;DHT22;7878;44.632;10.942;2022-08-03T08:54:03;32.40;77.50
15554;DHT22;7878;44.632;10.942;2022-08-03T08:56:31;32.20;77.30
15554;DHT22;7878;44.632;10.942;2022-08-03T08:58:59;32.20;77.40
15554;DHT22;7878;44.632;10.942;2022-08-03T09:01:25;32.10;76.80
15554;DHT22;7878;44.632;10.942;2022-08-03T09:03:51;32.00;76.60
15554;DHT22;7878;44.632;10.942;2022-08-03T09:06:27;31.90;75.90
15554;DHT22;7878;44.632;10.942;2022-08-03T09:08:52;31.80;75.90
15554;DHT22;7878;44.632;10.942;2022-08-03T09:11:22;31.80;75.90
15554;DHT22;7878;44.632;10.942;2022-08-03T09:13:48;31.80;75.60
15554;DHT22;7878;44.632;10.942;2022-08-03T09:16:20;31.80;75.50
15554;DHT22;7878;44.632;10.942;2022-08-03T09:18:49;31.80;75.20
15554;DHT22;7878;44.632;10.942;2022-08-03T09:21:20;31.80;73.70
15554;DHT22;7878;44.632;10.942;2022-08-03T09:23:48;31.70;73.70
15554;DHT22;7878;44.632;10.942;2022-08-03T09:26:25;31.70;74.20
15554;DHT22;7878;44.632;10.942;2022-08-03T09:29:08;31.70;70.60
15554;DHT22;7878;44.632;10.942;2022-08-03T09:31:40;31.80;71.90
15554;DHT22;7878;44.632;10.942;2022-08-03T09:34:09;31.80;73.20
15554;DHT22;7878;44.632;10.942;2022-08-03T09:36:44;31.90;72.80
15554;DHT22;7878;44.632;10.942;2022-08-03T09:41:40;32.10;72.90
15554;DHT22;7878;44.632;10.942;2022-08-03T09:44:06;32.20;72.20
15554;DHT22;7878;44.632;10.942;2022-08-03T09:46:50;32.40;72.70
15554;DHT22;7878;44.632;10.942;2022-08-03T09:49:17;32.60;70.90
15554;DHT22;7878;44.632;10.942;2022-08-03T09:51:43;32.60;72.20
15554;DHT22;7878;44.632;10.942;2022-08-03T09:54:09;32.60;72.30
15554;DHT22;7878;44.632;10.942;2022-08-03T09:56:44;32.60;72.60
15554;DHT22;7878;44.632;10.942;2022-08-03T09:59:12;32.60;72.50
15554;DHT22;7878;44.632;10.942;2022-08-03T10:01:38;32.50;72.60
15554;DHT22;7878;44.632;10.942;2022-08-03T10:04:11;32.40;72.80
15554;DHT22;7878;44.632;10.942;2022-08-03T10:06:38;32.40;72.20
15554;DHT22;7878;44.632;10.942;2022-08-03T10:09:15;32.40;72.60
15554;DHT22;7878;44.632;10.942;2022-08-03T10:11:42;32.40;71.20
15554;DHT22;7878;44.632;10.942;2022-08-03T10:14:10;32.50;70.70
15554;DHT22;7878;44.632;10.942;2022-08-03T10:16:38;32.40;71.20
15554;DHT22;7878;44.632;10.942;2022-08-03T10:19:07;32.50;70.70
15554;DHT22;7878;44.632;10.942;2022-08-03T10:21:40;32.60;71.30
15554;DHT22;7878;44.632;10.942;2022-08-03T10:24:08;32.60;71.60
15554;DHT22;7878;44.632;10.942;2022-08-03T10:26:39;32.70;71.40
15554;DHT22;7878;44.632;10.942;2022-08-03T10:29:11;32.80;69.70
15554;DHT22;7878;44.632;10.942;2022-08-03T10:31:43;32.90;69.10
15554;DHT22;7878;44.632;10.942;2022-08-03T10:34:22;33.00;69.10
15554;DHT22;7878;44.632;10.942;2022-08-03T10:36:49;33.20;68.60
15554;DHT22;7878;44.632;10.942;2022-08-03T10:39:18;33.50;68.80
15554;DHT22;7878;44.632;10.942;2022-08-03T10:41:46;33.60;69.60
15554;DHT22;7878;44.632;10.942;2022-08-03T10:44:17;33.90;70.10
15554;DHT22;7878;44.632;10.942;2022-08-03T10:46:44;34.10;69.00
15554;DHT22;7878;44.632;10.942;2022-08-03T10:49:16;33.90;69.10
15554;DHT22;7878;44.632;10.942;2022-08-03T10:51:43;33.80;67.90
15554;DHT22;7878;44.632;10.942;2022-08-03T11:00:21;33.70;65.70
15554;DHT22;7878;44.632;10.942;2022-08-03T11:05:40;34.40;66.30
15554;DHT22;7878;44.632;10.942;2022-08-03T11:10:52;38.80;62.80
15554;DHT22;7878;44.632;10.942;2022-08-03T11:13:21;40.80;62.00
15554;DHT22;7878;44.632;10.942;2022-08-03T11:15:50;42.20;59.90
15554;DHT22;7878;44.632;10.942;2022-08-03T11:18:16;43.20;59.00
15554;DHT22;7878;44.632;10.942;2022-08-03T11:20:55;43.70;59.30
15554;DHT22;7878;44.632;10.942;2022-08-03T11:23:46;44.20;55.80
15554;DHT22;7878;44.632;10.942;2022-08-03T11:26:14;45.00;52.40
15554;DHT22;7878;44.632;10.942;2022-08-03T11:28:42;45.90;58.70
15554;DHT22;7878;44.632;10.942;2022-08-03T11:34:08;46.80;50.10
15554;DHT22;7878;44.632;10.942;2022-08-03T11:39:41;47.80;49.00
15554;DHT22;7878;44.632;10.942;2022-08-03T11:44:49;48.20;48.90
15554;DHT22;7878;44.632;10.942;2022-08-03T11:47:16;46.80;57.10
15554;DHT22;7878;44.632;10.942;2022-08-03T11:49:46;44.70;54.60
15554;DHT22;7878;44.632;10.942;2022-08-03T11:52:13;43.00;53.00
15554;DHT22;7878;44.632;10.942;2022-08-03T11:54:39;41.70;57.70
15554;DHT22;7878;44.632;10.942;2022-08-03T11:57:05;40.60;58.70
15554;DHT22;7878;44.632;10.942;2022-08-03T11:59:35;39.90;59.10
15554;DHT22;7878;44.632;10.942;2022-08-03T12:02:12;39.20;57.80
15554;DHT22;7878;44.632;10.942;2022-08-03T12:07:23;38.30;55.40
15554;DHT22;7878;44.632;10.942;2022-08-03T12:10:13;38.00;58.90
15554;DHT22;7878;44.632;10.942;2022-08-03T12:12:40;37.80;55.10
15554;DHT22;7878;44.632;10.942;2022-08-03T12:15:07;37.50;58.50
15554;DHT22;7878;44.632;10.942;2022-08-03T12:17:35;37.20;59.20
15554;DHT22;7878;44.632;10.942;2022-08-03T12:20:01;37.00;59.50
15554;DHT22;7878;44.632;10.942;2022-08-03T12:22:37;36.90;59.60
15554;DHT22;7878;44.632;10.942;2022-08-03T12:25:04;36.80;56.60
15554;DHT22;7878;44.632;10.942;2022-08-03T12:27:30;36.50;58.60
15554;DHT22;7878;44.632;10.942;2022-08-03T12:29:57;36.40;58.80
15554;DHT22;7878;44.632;10.942;2022-08-03T12:32:23;36.20;58.50
15554;DHT22;7878;44.632;10.942;2022-08-03T12:34:50;36.10;59.60
15554;DHT22;7878;44.632;10.942;2022-08-03T12:37:20;36.10;58.80
15554;DHT22;7878;44.632;10.942;2022-08-03T12:39:54;35.90;58.70
15554;DHT22;7878;44.632;10.942;2022-08-03T12:42:19;35.90;57.90
15554;DHT22;7878;44.632;10.942;2022-08-03T12:44:45;35.80;59.20
15554;DHT22;7878;44.632;10.942;2022-08-03T12:47:13;35.70;59.40
15554;DHT22;7878;44.632;10.942;2022-08-03T12:49:51;35.70;58.50
15554;DHT22;7878;44.632;10.942;2022-08-03T12:52:18;35.50;56.80
15554;DHT22;7878;44.632;10.942;2022-08-03T12:54:58;35.40;58.30
15554;DHT22;7878;44.632;10.942;2022-08-03T12:57:24;35.30;56.40
15554;DHT22;7878;44.632;10.942;2022-08-03T12:59:50;35.20;58.60
15554;DHT22;7878;44.632;10.942;2022-08-03T13:02:22;35.20;59.00
15554;DHT22;7878;44.632;10.942;2022-08-03T13:04:49;35.20;58.40
15554;DHT22;7878;44.632;10.942;2022-08-03T13:07:16;35.10;59.20
15554;DHT22;7878;44.632;10.942;2022-08-03T13:09:52;35.10;59.30
15554;DHT22;7878;44.632;10.942;2022-08-03T13:12:25;35.10;58.60
15554;DHT22;7878;44.632;10.942;2022-08-03T13:14:55;35.10;58.90
15554;DHT22;7878;44.632;10.942;2022-08-03T13:17:22;35.00;59.20
15554;DHT22;7878;44.632;10.942;2022-08-03T13:19:48;35.00;59.20
15554;DHT22;7878;44.632;10.942;2022-08-03T13:22:18;35.00;59.00
15554;DHT22;7878;44.632;10.942;2022-08-03T13:24:45;35.00;59.60
15554;DHT22;7878;44.632;10.942;2022-08-03T13:27:12;35.00;58.70
15554;DHT22;7878;44.632;10.942;2022-08-03T13:29:38;35.00;58.90
15554;DHT22;7878;44.632;10.942;2022-08-03T13:32:04;34.90;59.20
15554;DHT22;7878;44.632;10.942;2022-08-03T13:34:31;34.90;59.20
15554;DHT22;7878;44.632;10.942;2022-08-03T13:36:57;34.90;59.70
15554;DHT22;7878;44.632;10.942;2022-08-03T13:39:22;34.90;59.10
15554;DHT22;7878;44.632;10.942;2022-08-03T13:41:49;35.00;59.40
15554;DHT22;7878;44.632;10.942;2022-08-03T13:44:15;35.00;59.80
15554;DHT22;7878;44.632;10.942;2022-08-03T13:46:40;35.00;59.60
15554;DHT22;7878;44.632;10.942;2022-08-03T13:49:07;35.00;59.60
15554;DHT22;7878;44.632;10.942;2022-08-03T13:51:33;35.10;59.60
15554;DHT22;7878;44.632;10.942;2022-08-03T13:53:59;35.10;59.00
15554;DHT22;7878;44.632;10.942;2022-08-03T13:56:28;35.00;58.90
15554;DHT22;7878;44.632;10.942;2022-08-03T13:58:54;35.00;58.90
15554;DHT22;7878;44.632;10.942;2022-08-03T14:01:20;35.10;59.70
15554;DHT22;7878;44.632;10.942;2022-08-03T14:03:46;35.10;59.90
15554;DHT22;7878;44.632;10.942;2022-08-03T14:06:19;35.10;59.60
15554;DHT22;7878;44.632;10.942;2022-08-03T14:08:45;35.10;59.40
15554;DHT22;7878;44.632;10.942;2022-08-03T14:11:12;35.10;59.20
15554;DHT22;7878;44.632;10.942;2022-08-03T14:13:38;35.10;59.60
15554;DHT22;7878;44.632;10.942;2022-08-03T14:16:04;35.00;60.00
15554;DHT22;7878;44.632;10.942;2022-08-03T14:18:30;35.10;60.00
15554;DHT22;7878;44.632;10.942;2022-08-03T14:20:59;35.10;59.60
15554;DHT22;7878;44.632;10.942;2022-08-03T14:23:26;35.10;59.80
15554;DHT22;7878;44.632;10.942;2022-08-03T14:25:51;35.10;59.40
15554;DHT22;7878;44.632;10.942;2022-08-03T14:28:18;35.20;59.60
15554;DHT22;7878;44.632;10.942;2022-08-03T14:30:44;35.20;59.30
15554;DHT22;7878;44.632;10.942;2022-08-03T14:33:10;35.10;59.80
15554;DHT22;7878;44.632;10.942;2022-08-03T14:35:36;35.20;59.40
15554;DHT22;7878;44.632;10.942;2022-08-03T14:38:01;35.20;59.30
15554;DHT22;7878;44.632;10.942;2022-08-03T14:40:27;35.20;58.40
15554;DHT22;7878;44.632;10.942;2022-08-03T14:42:52;35.20;58.40
15554;DHT22;7878;44.632;10.942;2022-08-03T14:45:18;35.10;58.40
15554;DHT22;7878;44.632;10.942;2022-08-03T14:47:44;35.10;58.50
15554;DHT22;7878;44.632;10.942;2022-08-03T14:50:09;35.10;58.60
15554;DHT22;7878;44.632;10.942;2022-08-03T14:52:35;35.10;58.80
15554;DHT22;7878;44.632;10.942;2022-08-03T14:55:01;35.10;59.20
15554;DHT22;7878;44.632;10.942;2022-08-03T14:57:26;35.00;59.20
15554;DHT22;7878;44.632;10.942;2022-08-03T14:59:52;35.10;59.50
15554;DHT22;7878;44.632;10.942;2022-08-03T15:02:18;35.10;59.40
15554;DHT22;7878;44.632;10.942;2022-08-03T15:04:44;35.10;59.10
15554;DHT22;7878;44.632;10.942;2022-08-03T15:07:10;35.00;59.50
15554;DHT22;7878;44.632;10.942;2022-08-03T15:09:36;35.00;58.10
15554;DHT22;7878;44.632;10.942;2022-08-03T15:12:06;35.00;59.20
15554;DHT22;7878;44.632;10.942;2022-08-03T15:14:32;35.00;59.40
15554;DHT22;7878;44.632;10.942;2022-08-03T15:16:58;35.00;59.40
15554;DHT22;7878;44.632;10.942;2022-08-03T15:19:24;35.00;59.20
15554;DHT22;7878;44.632;10.942;2022-08-03T15:21:49;34.90;59.20
15554;DHT22;7878;44.632;10.942;2022-08-03T15:24:15;34.90;59.10
15554;DHT22;7878;44.632;10.942;2022-08-03T15:26:41;34.80;59.50
15554;DHT22;7878;44.632;10.942;2022-08-03T15:29:06;34.80;59.40
15554;DHT22;7878;44.632;10.942;2022-08-03T15:31:33;34.80;59.20
15554;DHT22;7878;44.632;10.942;2022-08-03T15:33:59;34.80;59.50
15554;DHT22;7878;44.632;10.942;2022-08-03T15:36:25;34.80;59.60
15554;DHT22;7878;44.632;10.942;2022-08-03T15:38:51;34.80;59.80
15554;DHT22;7878;44.632;10.942;2022-08-03T15:41:16;34.80;59.80
15554;DHT22;7878;44.632;10.942;2022-08-03T15:43:42;34.90;59.90
15554;DHT22;7878;44.632;10.942;2022-08-03T15:46:11;34.90;59.90
15554;DHT22;7878;44.632;10.942;2022-08-03T15:48:37;34.90;59.90
15554;DHT22;7878;44.632;10.942;2022-08-03T15:51:03;34.90;60.10
15554;DHT22;7878;44.632;10.942;2022-08-03T15:53:29;34.90;60.10
15554;DHT22;7878;44.632;10.942;2022-08-03T15:55:55;34.90;60.20
15554;DHT22;7878;44.632;10.942;2022-08-03T15:58:21;34.90;60.00
15554;DHT22;7878;44.632;10.942;2022-08-03T16:00:46;34.90;59.90
15554;DHT22;7878;44.632;10.942;2022-08-03T16:03:12;34.90;59.90
15554;DHT22;7878;44.632;10.942;2022-08-03T16:05:38;34.80;59.80
15554;DHT22;7878;44.632;10.942;2022-08-03T16:08:04;34.80;59.80